createdAt,value
2023-04-21T00:01:41.647Z,9.40
2023-04-21T00:04:13.571Z,9.40
2023-04-21T00:06:42.670Z,9.50
2023-04-21T00:09:11.119Z,9.40
2023-04-21T00:11:39.162Z,9.40
2023-04-21T00:14:07.225Z,9.40
2023-04-21T00:16:35.568Z,9.50
2023-04-21T00:19:06.864Z,9.40
2023-04-21T00:21:36.927Z,9.40
2023-04-21T00:24:05.458Z,9.50
2023-04-21T00:26:33.459Z,9.50
2023-04-21T00:29:01.600Z,9.40
2023-04-21T00:31:31.527Z,9.40
2023-04-21T00:33:59.599Z,9.40
2023-04-21T00:36:28.515Z,9.50
2023-04-21T00:38:57.890Z,9.50
2023-04-21T00:41:26.078Z,9.50
2023-04-21T00:44:05.041Z,9.50
2023-04-21T00:46:33.627Z,9.50
2023-04-21T00:49:04.235Z,9.50
2023-04-21T00:51:35.370Z,9.50
2023-04-21T00:54:06.524Z,9.50
2023-04-21T00:56:36.509Z,9.50
2023-04-21T00:59:04.985Z,9.50
2023-04-21T01:01:34.185Z,9.60
2023-04-21T01:04:02.719Z,9.60
2023-04-21T01:06:33.041Z,9.50
2023-04-21T01:09:01.337Z,9.50
2023-04-21T01:11:31.365Z,9.60
2023-04-21T01:13:59.437Z,9.70
2023-04-21T01:16:27.505Z,9.80
2023-04-21T01:18:55.589Z,9.80
2023-04-21T01:21:23.726Z,9.80
2023-04-21T01:23:53.154Z,9.90
2023-04-21T01:26:22.704Z,9.90
2023-04-21T01:28:50.992Z,9.90
2023-04-21T01:31:21.015Z,9.80
2023-04-21T01:33:49.077Z,9.80
2023-04-21T01:36:17.723Z,9.80
2023-04-21T01:38:45.937Z,9.90
2023-04-21T01:41:15.877Z,9.90
2023-04-21T01:43:43.918Z,9.90
2023-04-21T01:46:11.946Z,9.90
2023-04-21T01:48:39.896Z,10.00
2023-04-21T01:51:07.923Z,10.00
2023-04-21T01:53:35.904Z,10.00
2023-04-21T01:56:04.031Z,10.00
2023-04-21T01:58:33.769Z,10.00
2023-04-21T02:01:01.802Z,10.00
2023-04-21T02:03:29.947Z,10.10
2023-04-21T02:05:58.015Z,10.00
2023-04-21T02:08:26.010Z,10.00
2023-04-21T02:10:53.996Z,10.00
2023-04-21T02:13:21.982Z,10.00
2023-04-21T02:15:59.646Z,10.00
2023-04-21T02:18:34.470Z,9.90
2023-04-21T02:21:03.013Z,10.00
2023-04-21T02:23:31.017Z,10.00
2023-04-21T02:25:59.043Z,9.90
2023-04-21T02:28:27.074Z,10.00
2023-04-21T02:30:56.526Z,9.90
2023-04-21T02:33:24.912Z,9.90
2023-04-21T02:35:53.017Z,9.90
2023-04-21T02:38:20.964Z,9.90
2023-04-21T02:40:50.502Z,9.90
2023-04-21T02:43:19.845Z,9.90
2023-04-21T02:45:49.785Z,9.90
2023-04-21T02:48:22.811Z,9.90
2023-04-21T02:50:53.177Z,9.90
2023-04-21T02:53:21.428Z,9.80
2023-04-21T02:55:50.228Z,9.80
2023-04-21T02:58:18.396Z,9.80
2023-04-21T03:00:46.623Z,9.80
2023-04-21T03:03:16.414Z,9.80
2023-04-21T03:05:45.991Z,9.80
2023-04-21T03:08:14.015Z,9.70
2023-04-21T03:10:42.046Z,9.70
2023-04-21T03:13:10.079Z,9.70
2023-04-21T03:15:38.725Z,9.60
2023-04-21T03:18:06.913Z,9.50
2023-04-21T03:20:34.967Z,9.50
2023-04-21T03:23:04.349Z,9.50
2023-04-21T03:25:32.441Z,9.40
2023-04-21T03:28:00.767Z,9.40
2023-04-21T03:30:28.943Z,9.40
2023-04-21T03:32:58.596Z,9.30
2023-04-21T03:35:26.958Z,9.30
2023-04-21T03:37:55.160Z,9.40
2023-04-21T03:40:24.679Z,9.30
2023-04-21T03:42:52.825Z,9.30
2023-04-21T03:45:22.511Z,9.30
2023-04-21T03:47:53.798Z,9.30
2023-04-21T03:50:22.023Z,9.30
2023-04-21T03:52:49.988Z,9.20
2023-04-21T03:55:18.134Z,9.20
2023-04-21T03:57:47.547Z,9.20
2023-04-21T04:00:15.983Z,9.20
2023-04-21T04:02:44.105Z,9.20
2023-04-21T04:05:12.254Z,9.20
2023-04-21T04:07:40.320Z,9.20
2023-04-21T04:10:08.415Z,9.20
2023-04-21T04:12:36.399Z,9.20
2023-04-21T04:15:07.850Z,9.20
2023-04-21T04:17:35.928Z,9.10
2023-04-21T04:20:06.338Z,9.20
2023-04-21T04:22:34.657Z,9.20
2023-04-21T04:25:02.668Z,9.20
2023-04-21T04:27:30.698Z,9.20
2023-04-21T04:29:59.244Z,9.10
2023-04-21T04:32:28.877Z,9.10
2023-04-21T04:34:56.960Z,9.20
2023-04-21T04:37:25.332Z,9.20
2023-04-21T04:39:54.415Z,9.20
2023-04-21T04:42:22.346Z,9.20
2023-04-21T04:44:50.577Z,9.20
2023-04-21T04:47:18.619Z,9.10
2023-04-21T04:49:48.016Z,9.10
2023-04-21T04:52:16.133Z,9.10
2023-04-21T04:54:44.118Z,9.10
2023-04-21T04:57:12.794Z,9.10
2023-04-21T04:59:40.880Z,9.10
2023-04-21T05:02:09.197Z,9.10
2023-04-21T05:04:37.400Z,9.10
2023-04-21T05:07:07.780Z,9.10
2023-04-21T05:09:35.883Z,9.10
2023-04-21T05:12:03.981Z,9.00
2023-04-21T05:14:32.010Z,9.00
2023-04-21T05:17:00.181Z,8.90
2023-04-21T05:19:28.357Z,8.90
2023-04-21T05:22:00.949Z,8.90
2023-04-21T05:24:30.454Z,9.00
2023-04-21T05:26:58.387Z,9.10
2023-04-21T05:29:26.888Z,9.10
2023-04-21T05:31:54.916Z,9.10
2023-04-21T05:34:22.968Z,9.20
2023-04-21T05:36:52.171Z,9.20
2023-04-21T05:39:20.338Z,9.20
2023-04-21T05:41:49.694Z,9.20
2023-04-21T05:44:18.718Z,9.20
2023-04-21T05:46:46.991Z,9.30
2023-04-21T05:49:15.003Z,9.20
2023-04-21T05:51:43.011Z,9.20
2023-04-21T05:54:11.041Z,9.30
2023-04-21T05:56:38.982Z,9.40
2023-04-21T05:59:08.351Z,9.40
2023-04-21T06:01:36.349Z,9.40
2023-04-21T06:04:04.852Z,9.40
2023-04-21T06:06:33.062Z,9.50
2023-04-21T06:09:01.181Z,9.50
2023-04-21T06:11:29.160Z,9.50
2023-04-21T06:13:59.472Z,9.50
2023-04-21T06:16:32.138Z,9.50
2023-04-21T06:19:00.185Z,9.50
2023-04-21T06:21:28.412Z,9.60
2023-04-21T06:23:56.386Z,9.60
2023-04-21T06:26:24.394Z,9.70
2023-04-21T06:28:52.354Z,9.70
2023-04-21T06:31:20.453Z,9.80
2023-04-21T06:33:49.781Z,9.90
2023-04-21T06:36:18.209Z,9.90
2023-04-21T06:38:46.542Z,10.00
2023-04-21T06:41:14.506Z,10.00
2023-04-21T06:43:42.495Z,10.10
2023-04-21T06:46:10.777Z,10.00
2023-04-21T06:48:38.799Z,10.10
2023-04-21T06:51:08.275Z,10.10
2023-04-21T06:53:37.412Z,10.10
2023-04-21T06:56:05.600Z,10.20
2023-04-21T06:58:33.645Z,10.20
2023-04-21T07:01:01.916Z,10.10
2023-04-21T07:03:30.158Z,10.20
2023-04-21T07:05:58.211Z,10.20
2023-04-21T07:08:27.704Z,10.20
2023-04-21T07:10:55.715Z,10.20
2023-04-21T07:13:24.062Z,10.20
2023-04-21T07:15:52.689Z,10.20
2023-04-21T07:18:20.786Z,10.20
2023-04-21T07:20:48.799Z,10.30
2023-04-21T07:23:16.792Z,10.40
2023-04-21T07:25:46.181Z,10.40
2023-04-21T07:28:15.125Z,10.40
2023-04-21T07:30:43.319Z,10.40
2023-04-21T07:33:11.460Z,10.50
2023-04-21T07:35:39.464Z,10.50
2023-04-21T07:38:07.446Z,10.60
2023-04-21T07:40:35.466Z,10.50
2023-04-21T07:43:04.841Z,10.60
2023-04-21T07:45:32.903Z,10.60
2023-04-21T07:48:00.980Z,10.60
2023-04-21T07:50:29.299Z,10.60
2023-04-21T07:52:57.294Z,10.70
2023-04-21T07:55:25.374Z,10.80
2023-04-21T07:57:53.385Z,10.90
2023-04-21T08:00:23.018Z,10.90
2023-04-21T08:02:51.315Z,10.90
2023-04-21T08:05:19.568Z,10.90
2023-04-21T08:07:47.945Z,10.90
2023-04-21T08:10:16.583Z,11.00
2023-04-21T08:12:44.671Z,11.10
2023-04-21T08:15:12.751Z,11.10
2023-04-21T08:17:42.377Z,11.10
2023-04-21T08:20:11.551Z,11.20
2023-04-21T08:22:39.652Z,11.20
2023-04-21T08:25:08.557Z,11.30
2023-04-21T08:27:39.093Z,11.30
2023-04-21T08:30:08.446Z,11.30
2023-04-21T08:32:36.544Z,11.40
2023-04-21T08:35:06.437Z,11.40
2023-04-21T08:37:36.863Z,11.40
2023-04-21T08:40:05.238Z,11.50
2023-04-21T08:42:34.314Z,11.50
2023-04-21T08:45:02.306Z,11.60
2023-04-21T08:47:30.790Z,11.70
2023-04-21T08:49:59.761Z,11.70
2023-04-21T08:52:29.134Z,11.70
2023-04-21T08:54:57.821Z,11.70
2023-04-21T08:57:25.813Z,11.80
2023-04-21T08:59:53.927Z,11.80
2023-04-21T09:02:23.155Z,12.00
2023-04-21T09:04:52.904Z,12.10
2023-04-21T09:07:36.130Z,12.10
2023-04-21T09:10:06.773Z,12.10
2023-04-21T09:12:34.857Z,12.20
2023-04-21T09:15:06.144Z,12.30
2023-04-21T09:17:36.280Z,12.40
2023-04-21T09:20:15.864Z,12.50
2023-04-21T09:22:45.630Z,12.40
2023-04-21T09:25:17.676Z,12.50
2023-04-21T09:27:46.764Z,12.60
2023-04-21T09:30:19.409Z,12.70
2023-04-21T09:32:48.730Z,12.80
2023-04-21T09:35:16.760Z,12.90
2023-04-21T09:37:46.178Z,13.00
2023-04-21T09:40:15.714Z,13.00
2023-04-21T09:42:44.867Z,13.10
2023-04-21T09:47:51.099Z,13.30
2023-04-21T09:50:39.307Z,13.40
2023-04-21T09:53:15.942Z,13.40
2023-04-21T09:55:48.685Z,13.50
2023-04-21T09:58:20.616Z,13.50
2023-04-21T10:00:49.538Z,13.50
2023-04-21T10:03:21.688Z,13.50
2023-04-21T10:05:49.957Z,13.50
2023-04-21T10:08:20.160Z,13.60
2023-04-21T10:10:48.309Z,13.60
2023-04-21T10:13:18.594Z,13.70
2023-04-21T10:15:46.722Z,13.80
2023-04-21T10:18:17.643Z,13.90
2023-04-21T10:20:53.464Z,13.90
2023-04-21T10:23:37.890Z,14.00
2023-04-21T10:26:09.710Z,14.00
2023-04-21T10:28:57.356Z,14.00
2023-04-21T10:31:33.254Z,14.10
2023-04-21T10:34:23.807Z,14.10
2023-04-21T10:37:15.635Z,14.10
2023-04-21T10:39:54.614Z,14.10
2023-04-21T10:42:29.453Z,14.10
2023-04-21T10:45:18.662Z,14.20
2023-04-21T10:47:49.310Z,14.30
2023-04-21T10:50:23.382Z,14.40
2023-04-21T10:52:57.777Z,14.50
2023-04-21T10:55:30.182Z,14.60
2023-04-21T10:58:00.187Z,14.70
2023-04-21T11:00:28.351Z,14.90
2023-04-21T11:03:01.406Z,15.10
2023-04-21T11:05:36.127Z,15.20
2023-04-21T11:08:12.572Z,15.30
2023-04-21T11:10:52.410Z,15.20
2023-04-21T11:13:23.525Z,15.30
2023-04-21T11:16:02.859Z,15.30
2023-04-21T11:18:44.411Z,15.40
2023-04-21T11:21:17.678Z,15.40
2023-04-21T11:23:54.130Z,15.50
2023-04-21T11:26:33.647Z,15.60
2023-04-21T11:29:03.971Z,15.60
2023-04-21T11:31:32.774Z,15.70
2023-04-21T11:34:01.248Z,15.80
2023-04-21T11:36:30.754Z,15.90
2023-04-21T11:38:59.368Z,16.00
2023-04-21T11:41:27.474Z,16.20
2023-04-21T11:43:56.834Z,16.30
2023-04-21T11:46:26.432Z,16.40
2023-04-21T11:49:01.837Z,16.50
2023-04-21T11:51:34.714Z,16.60
2023-04-21T11:54:03.086Z,16.60
2023-04-21T11:56:31.387Z,16.60
2023-04-21T11:59:01.006Z,16.60
2023-04-21T12:01:29.089Z,16.70
2023-04-21T12:03:57.939Z,16.70
2023-04-21T12:06:28.676Z,16.80
2023-04-21T12:08:58.508Z,17.00
2023-04-21T12:11:27.995Z,17.10
2023-04-21T12:13:58.493Z,17.10
2023-04-21T12:16:29.107Z,17.00
2023-04-21T12:18:58.267Z,17.00
2023-04-21T12:21:28.930Z,17.00
2023-04-21T12:23:58.026Z,17.10
2023-04-21T12:26:26.175Z,17.10
2023-04-21T12:28:54.722Z,17.10
2023-04-21T12:31:23.056Z,17.10
2023-04-21T12:33:52.777Z,17.10
2023-04-21T12:36:20.872Z,17.00
2023-04-21T12:38:48.877Z,17.10
2023-04-21T12:41:17.369Z,17.20
2023-04-21T12:43:45.576Z,17.40
2023-04-21T12:46:13.642Z,17.50
2023-04-21T12:48:41.719Z,17.50
2023-04-21T12:51:11.174Z,17.70
2023-04-21T12:53:39.203Z,17.70
2023-04-21T12:56:07.836Z,17.60
2023-04-21T12:58:35.970Z,17.60
2023-04-21T13:01:04.071Z,17.60
2023-04-21T13:03:32.301Z,17.80
2023-04-21T13:06:00.548Z,17.90
2023-04-21T13:08:30.198Z,17.90
2023-04-21T13:10:58.244Z,17.80
2023-04-21T13:13:26.492Z,17.70
2023-04-21T13:15:54.601Z,17.70
2023-04-21T13:18:22.678Z,17.90
2023-04-21T13:20:50.790Z,18.30
2023-04-21T13:23:18.854Z,18.20
2023-04-21T13:25:50.719Z,18.10
2023-04-21T13:28:19.374Z,17.90
2023-04-21T13:30:47.561Z,17.90
2023-04-21T13:33:15.658Z,18.20
2023-04-21T13:35:44.029Z,18.40
2023-04-21T13:38:12.026Z,18.70
2023-04-21T13:40:40.246Z,19.00
2023-04-21T13:43:10.045Z,19.40
2023-04-21T13:45:38.403Z,19.50
2023-04-21T13:48:06.626Z,19.70
2023-04-21T13:50:34.673Z,19.80
2023-04-21T13:53:02.860Z,20.00
2023-04-21T13:55:31.319Z,19.90
2023-04-21T13:58:00.585Z,19.50
2023-04-21T14:00:30.038Z,19.30
2023-04-21T14:02:58.259Z,19.50
2023-04-21T14:05:26.702Z,19.70
2023-04-21T14:07:55.008Z,19.90
2023-04-21T14:10:23.260Z,20.20
2023-04-21T14:12:51.325Z,20.30
2023-04-21T14:15:20.610Z,20.20
2023-04-21T14:17:50.345Z,19.90
2023-04-21T14:20:18.414Z,19.90
2023-04-21T14:22:46.430Z,19.70
2023-04-21T14:25:14.513Z,19.60
2023-04-21T14:27:42.608Z,19.70
2023-04-21T14:30:11.589Z,20.10
2023-04-21T14:32:44.508Z,20.40
2023-04-21T14:35:14.007Z,20.80
2023-04-21T14:37:42.430Z,21.10
2023-04-21T14:40:11.560Z,21.00
2023-04-21T14:42:41.435Z,20.80
2023-04-21T14:45:11.015Z,20.80
2023-04-21T14:47:39.321Z,21.20
2023-04-21T14:50:08.519Z,21.70
2023-04-21T14:52:38.565Z,22.10
2023-04-21T14:55:07.564Z,22.30
2023-04-21T14:57:35.549Z,21.80
2023-04-21T15:00:03.620Z,21.40
2023-04-21T15:02:31.818Z,22.00
2023-04-21T15:04:59.989Z,23.00
2023-04-21T15:07:28.060Z,24.00
2023-04-21T15:09:57.664Z,24.70
2023-04-21T15:12:26.190Z,24.60
2023-04-21T15:14:54.233Z,23.90
2023-04-21T15:17:22.382Z,23.00
2023-04-21T15:19:50.701Z,22.40
2023-04-21T15:22:19.041Z,22.20
2023-04-21T15:24:47.346Z,21.70
2023-04-21T15:27:17.406Z,21.40
2023-04-21T15:29:45.473Z,21.30
2023-04-21T15:32:14.525Z,21.20
2023-04-21T15:34:42.553Z,21.00
2023-04-21T15:37:10.602Z,20.80
2023-04-21T15:39:39.261Z,20.80
2023-04-21T15:42:08.413Z,20.80
2023-04-21T15:44:39.471Z,20.60
2023-04-21T15:47:07.653Z,20.50
2023-04-21T15:49:35.907Z,20.30
2023-04-21T15:52:05.058Z,20.30
2023-04-21T15:54:34.989Z,20.20
2023-04-21T15:57:03.360Z,20.20
2023-04-21T15:59:31.414Z,20.00
2023-04-21T16:02:00.887Z,19.80
2023-04-21T16:04:29.265Z,19.70
2023-04-21T16:06:57.405Z,19.70
2023-04-21T16:09:25.499Z,19.60
2023-04-21T16:11:53.518Z,19.50
2023-04-21T16:14:21.616Z,19.40
2023-04-21T16:16:49.715Z,19.40
2023-04-21T16:19:19.113Z,19.40
2023-04-21T16:21:47.198Z,19.30
2023-04-21T16:24:15.297Z,19.20
2023-04-21T16:26:43.440Z,19.20
2023-04-21T16:29:11.777Z,19.10
2023-04-21T16:31:39.898Z,19.10
2023-04-21T16:34:08.246Z,19.10
2023-04-21T16:36:37.746Z,19.10
2023-04-21T16:39:06.677Z,19.10
2023-04-21T16:41:34.770Z,19.00
2023-04-21T16:44:02.895Z,19.10
2023-04-21T16:46:31.015Z,19.00
2023-04-21T16:48:59.090Z,19.10
2023-04-21T16:51:28.467Z,19.20
2023-04-21T16:53:58.010Z,19.20
2023-04-21T16:56:26.025Z,19.20
2023-04-21T16:58:54.431Z,19.20
2023-04-21T17:01:22.463Z,19.30
2023-04-21T17:03:50.677Z,19.30
2023-04-21T17:06:21.001Z,19.30
2023-04-21T17:08:49.433Z,19.30
2023-04-21T17:11:18.845Z,19.30
2023-04-21T17:13:47.009Z,19.20
2023-04-21T17:16:15.292Z,19.10
2023-04-21T17:18:43.349Z,19.00
2023-04-21T17:21:12.522Z,19.00
2023-04-21T17:23:40.888Z,18.90
2023-04-21T17:26:12.292Z,18.80
2023-04-21T17:28:42.823Z,18.80
2023-04-21T17:31:15.274Z,18.70
2023-04-21T17:33:44.376Z,18.70
2023-04-21T17:36:12.728Z,18.70
2023-04-21T17:38:42.669Z,18.70
2023-04-21T17:41:10.910Z,18.70
2023-04-21T17:43:39.030Z,18.70
2023-04-21T17:46:08.749Z,18.70
2023-04-21T17:48:37.164Z,18.60
2023-04-21T17:51:05.557Z,18.50
2023-04-21T17:53:34.030Z,18.50
2023-04-21T17:56:02.362Z,18.40
2023-04-21T17:58:30.546Z,18.40
2023-04-21T18:00:59.115Z,18.40
2023-04-21T18:03:29.046Z,18.40
2023-04-21T18:05:57.602Z,18.30
2023-04-21T18:08:26.824Z,18.30
2023-04-21T18:10:56.314Z,18.30
2023-04-21T18:13:24.389Z,18.30
2023-04-21T18:15:52.458Z,18.20
2023-04-21T18:18:20.515Z,18.20
2023-04-21T18:20:49.912Z,18.20
2023-04-21T18:23:18.130Z,18.10
2023-04-21T18:25:46.480Z,18.10
2023-04-21T18:28:14.539Z,18.10
2023-04-21T18:30:42.680Z,18.00
2023-04-21T18:33:11.472Z,18.00
2023-04-21T18:35:39.855Z,18.00
2023-04-21T18:38:11.206Z,17.90
2023-04-21T18:40:40.754Z,17.90
2023-04-21T18:43:10.556Z,17.90
2023-04-21T18:45:38.924Z,17.90
2023-04-21T18:48:07.024Z,17.90
2023-04-21T18:50:39.460Z,17.80
2023-04-21T18:53:09.736Z,17.80
2023-04-21T18:55:38.475Z,17.80
2023-04-21T18:58:07.094Z,17.80
2023-04-21T19:00:37.527Z,17.70
2023-04-21T19:03:06.405Z,17.40
2023-04-21T19:05:36.114Z,17.10
2023-04-21T19:08:04.246Z,16.70
2023-04-21T19:10:35.629Z,16.40
2023-04-21T19:13:04.235Z,16.20
2023-04-21T19:15:32.358Z,15.90
2023-04-21T19:18:00.436Z,15.70
2023-04-21T19:20:29.988Z,15.50
2023-04-21T19:22:58.223Z,15.40
2023-04-21T19:25:26.318Z,15.20
2023-04-21T19:27:55.784Z,15.10
2023-04-21T19:30:24.081Z,15.20
2023-04-21T19:32:52.143Z,15.20
2023-04-21T19:35:20.785Z,15.10
2023-04-21T19:37:49.005Z,15.10
2023-04-21T19:40:17.062Z,15.10
2023-04-21T19:42:45.201Z,15.10
2023-04-21T19:45:17.126Z,15.00
2023-04-21T19:47:45.589Z,15.00
2023-04-21T19:50:14.031Z,14.90
2023-04-21T19:52:42.084Z,14.80
2023-04-21T19:55:11.486Z,14.70
2023-04-21T19:57:39.601Z,14.60
2023-04-21T20:00:11.333Z,14.50
2023-04-21T20:02:43.774Z,14.50
2023-04-21T20:05:11.995Z,14.50
2023-04-21T20:07:40.603Z,14.50
2023-04-21T20:10:09.877Z,14.60
2023-04-21T20:12:38.197Z,14.60
2023-04-21T20:15:07.580Z,14.50
2023-04-21T20:17:36.816Z,14.40
2023-04-21T20:20:09.296Z,14.50
2023-04-21T20:22:37.366Z,14.50
2023-04-21T20:25:07.309Z,14.50
2023-04-21T20:27:35.591Z,14.50
2023-04-21T20:30:03.877Z,14.50
2023-04-21T20:32:32.605Z,14.50
2023-04-21T20:35:00.627Z,14.50
2023-04-21T20:37:30.366Z,14.50
2023-04-21T20:40:01.409Z,14.40
2023-04-21T20:42:29.407Z,14.40
2023-04-21T20:44:57.656Z,14.40
2023-04-21T20:47:25.682Z,14.40
2023-04-21T20:49:54.687Z,14.40
2023-04-21T20:52:23.264Z,14.40
2023-04-21T20:54:52.671Z,14.30
2023-04-21T20:57:20.941Z,14.30
2023-04-21T20:59:48.995Z,14.40
2023-04-21T21:02:17.119Z,14.40
2023-04-21T21:04:47.151Z,14.40
2023-04-21T21:07:15.233Z,14.40
2023-04-21T21:09:43.247Z,14.30
2023-04-21T21:12:12.668Z,14.20
2023-04-21T21:14:40.843Z,14.20
2023-04-21T21:17:09.975Z,14.00
2023-04-21T21:19:38.502Z,14.00
2023-04-21T21:22:06.941Z,14.00
2023-04-21T21:24:34.969Z,14.00
2023-04-21T21:27:03.079Z,13.90
2023-04-21T21:29:32.422Z,13.90
2023-04-21T21:32:00.464Z,13.90
2023-04-21T21:34:28.527Z,13.80
2023-04-21T21:36:56.546Z,13.80
2023-04-21T21:39:25.031Z,13.90
2023-04-21T21:41:53.085Z,13.90
2023-04-21T21:44:21.969Z,13.80
2023-04-21T21:46:52.204Z,13.70
2023-04-21T21:49:20.420Z,13.70
2023-04-21T21:51:48.420Z,13.70
2023-04-21T21:54:16.589Z,13.60
2023-04-21T21:56:44.745Z,13.70
2023-04-21T21:59:12.781Z,13.70
2023-04-21T22:01:40.836Z,13.70
2023-04-21T22:04:10.386Z,13.60
2023-04-21T22:06:38.459Z,13.60
2023-04-21T22:09:06.825Z,13.50
2023-04-21T22:11:36.912Z,13.40
2023-04-21T22:14:14.531Z,13.50
2023-04-21T22:16:47.399Z,13.50
2023-04-21T22:19:17.617Z,13.40
2023-04-21T22:21:45.625Z,13.40
2023-04-21T22:24:13.622Z,13.40
2023-04-21T22:26:41.949Z,13.40
2023-04-21T22:29:10.261Z,13.40
2023-04-21T22:31:38.595Z,13.30
2023-04-21T22:34:06.770Z,13.30
2023-04-21T22:36:36.456Z,13.10
2023-04-21T22:39:05.054Z,13.20
2023-04-21T22:41:33.336Z,13.20
2023-04-21T22:44:01.358Z,13.10
2023-04-21T22:46:31.989Z,13.10
2023-04-21T22:49:00.493Z,13.00
2023-04-21T22:51:29.783Z,12.90
2023-04-21T22:53:59.682Z,12.90
2023-04-21T22:56:27.842Z,12.90
2023-04-21T22:58:55.965Z,12.90
2023-04-21T23:01:24.147Z,12.90
2023-04-21T23:03:52.344Z,12.90
2023-04-21T23:06:20.415Z,12.90
2023-04-21T23:08:48.408Z,12.90
2023-04-21T23:11:17.748Z,12.90
2023-04-21T23:13:45.736Z,12.90
2023-04-21T23:16:13.847Z,12.90
2023-04-21T23:18:41.946Z,12.80
2023-04-21T23:21:09.989Z,12.80
2023-04-21T23:23:37.960Z,12.80
2023-04-21T23:26:06.145Z,12.70
2023-04-21T23:28:35.802Z,12.70
2023-04-21T23:31:03.806Z,12.70
2023-04-21T23:33:31.852Z,12.60
2023-04-21T23:35:59.907Z,12.60
2023-04-21T23:38:27.883Z,12.50
2023-04-21T23:40:55.910Z,12.50
2023-04-21T23:43:23.887Z,12.60
2023-04-21T23:45:53.301Z,12.50
2023-04-21T23:48:21.392Z,12.50
2023-04-21T23:50:49.439Z,12.60
2023-04-21T23:53:17.485Z,12.60
2023-04-21T23:55:46.096Z,12.70
2023-04-21T23:58:14.164Z,12.60
